AirNav   Everest Fuels
 
 395 users online  

28AZ Sampley's Airport
Aguila, Arizona, USA

GOING TO AGUILA?


FAA INFORMATION EFFECTIVE 05 DECEMBER 2019

Location

FAA Identifier: 28AZ
Lat/Long: 33-55-22.1060N 113-10-52.6920W
33-55.368433N 113-10.878200W
33.9228072,-113.1813033
(estimated)
Elevation: 2208 ft. / 673 m (estimated)
Variation: 13E (1985)
From city: 1 mile S of AGUILA, AZ
Time zone: UTC -7 (year round; does not observe DST)
Zip code: 85320

Airport Operations

Airport use: Private use. Permission required prior to landing
Control tower: no
ARTCC: ALBUQUERQUE CENTER
FSS: PRESCOTT FLIGHT SERVICE STATION
Attendance: 0800-1700
Wind indicator: yes
Segmented circle: no

Airport Communications

WX AWOS-3 at E25 (19 nm E): 121.375 (928-684-2487)

Nearby radio navigation aids

VOR radial/distance  VOR name  Freq  Var
BXKr314/33.3BUCKEYE VORTAC110.6014E

Airport Services

Parking: tiedowns

Runway Information

Runway 17/35

Dimensions: 3500 x 75 ft. / 1067 x 23 m
125' WIDTH AVBL BUT OVERGROWN WITH BRUSH BOTH SIDES OF RY.
Surface: dirt, in good condition
RUNWAY 17  RUNWAY 35
Traffic pattern: rightleft
Obstructions: 10 ft. road, 210 ft. from runway, 21:1 slope to clear10 ft. road, 210 ft. from runway, 21:1 slope to clear

Airport Ownership and Management from official FAA records

Ownership: Privately-owned
Owner: VALLEY OF THE EAGLE MGT CO.
PO BOX 294
AGUILA, AZ 85320
Phone (928) 685-3083
Manager: JERRY WITSKEN
PO BOX 522
AGUILA, AZ 85320
Phone 928-685-4859

Airport Operational Statistics

Aircraft based on the field: 15
Single engine airplanes: 15
    
Aircraft operations: 225/year
67% transient general aviation
33% local general aviation

Additional Remarks

CAUTION: PVT ARPT 1 MILE EAST AND PVT ARPT 3000' SW.
+4 FT FENCE +1 FT BERM AND MINUS 1 FT DITCH ALONG WEST SIDE OF RWY 17/35.
FOR CD CTC ALBUQUERQUE ARTCC AT 505-856-4861.

Instrument Procedures

There are no published instrument procedures at 28AZ.

Some nearby airports with instrument procedures:

KLUF - Luke Air Force Base (46 nm SE)
KGYR - Phoenix Goodyear Airport (50 nm SE)
KGEU - Glendale Municipal Airport (50 nm SE)
P20 - Avi Suquilla Airport (56 nm W)
KDVT - Phoenix Deer Valley Airport (57 nm E)
 
Loc | Ops | Rwys | IFR | FBO | Links
Com | Nav | Svcs | Stats | Notes
Area around 28AZ (Sampley's Airport)
 
Road maps at: MapQuest Bing Google
 
Aerial photo
WARNING: Photo may not be current or correct
Aerial photo of 28AZ (Sampley's Airport)
Photo by Bruce Rigney
Photo taken 21-Oct-2008

Do you have a better or more recent aerial photo of Sampley's Airport that you would like to share? If so, please send us your photo.

 
Sectional chart

 
Airport distance calculator
Flying to Sampley's Airport? Find the distance to fly.

From to 28AZ

Sunrise and sunset
Times for 10-Dec-2019
 Local
(UTC-7)
 Zulu
(UTC)
Morning civil twilight07:0114:01
Sunrise07:2814:28
Sunset17:2300:23
Evening civil twilight17:5100:51

Current date and time
Zulu (UTC)  11-Dec-2019 06:47:25
Local (UTC-7)  10-Dec-2019 23:47:25
 
METAR
KBXK 
39nm SE 
110635Z AUTO 33006KT 10SM CLR 09/08 A3021 RMK A01
KLUF 
47nm SE 
110558Z AUTO 00000KT 10SM CLR 10/08 A3018 RMK AO2 SLP219 T01000084 10180 20100 50000
KGEU 
50nm SE 
110258Z 00000KT 10SM BKN220 13/08 A3022 RMK LAST
TAF
KLUF 
47nm SE 
110400Z 1104/1210 VRB06KT 9999 FEW250 QNH3009INS BECMG 1115/1116 VRB06KT 9999 SCT200 QNH3019INS BECMG 1119/1120 VRB06KT 9999 SKC QNH3013INS TX19/1123Z TN08/1112Z
NOTAMs
Click for the latest NOTAMs
NOTAMs are issued by the DoD/FAA and will open in a separate window not controlled by AirNav.

 

 
 

Would you like to see your business listed on this page?

 If your business provides an interesting product or service to pilots, flight crews, aircraft, or users of the Sampley's Airport, you should consider listing it here.  To start the listing process, click on the button below
 
Add a business
 

Other Pages about Sampley's Airport

www.eagleroost.com/new_adj_airpk.htm
 
Update a link
 
Copyright © AirNav, LLC. All rights reserved. Privacy Policy  Contact